createdAt,value
2022-11-29T00:00:52.028Z,8.15
2022-11-29T00:01:52.212Z,8.16
2022-11-29T00:02:52.082Z,8.16
2022-11-29T00:03:52.041Z,8.16
2022-11-29T00:04:52.026Z,8.18
2022-11-29T00:05:51.988Z,8.16
2022-11-29T00:06:51.955Z,8.18
2022-11-29T00:07:51.993Z,8.18
2022-11-29T00:08:51.935Z,8.18
2022-11-29T00:09:51.997Z,8.16
2022-11-29T00:10:51.904Z,8.18
2022-11-29T00:11:51.914Z,8.19
2022-11-29T00:12:51.879Z,8.19
2022-11-29T00:13:51.895Z,8.19
2022-11-29T00:14:51.880Z,8.19
2022-11-29T00:15:51.871Z,8.19
2022-11-29T00:16:51.897Z,8.20
2022-11-29T00:17:51.857Z,8.19
2022-11-29T00:18:51.814Z,8.20
2022-11-29T00:19:51.813Z,8.19
2022-11-29T00:20:51.799Z,8.20
2022-11-29T00:21:51.812Z,8.19
2022-11-29T00:22:51.752Z,8.19
2022-11-29T00:23:51.759Z,8.20
2022-11-29T00:24:51.754Z,8.22
2022-11-29T00:25:51.737Z,8.22
2022-11-29T00:26:51.720Z,8.20
2022-11-29T00:27:51.749Z,8.23
2022-11-29T00:28:51.675Z,8.23
2022-11-29T00:29:51.704Z,8.23
2022-11-29T00:30:51.675Z,8.25
2022-11-29T00:31:51.659Z,8.25
2022-11-29T00:32:51.644Z,8.25
2022-11-29T00:33:51.641Z,8.25
2022-11-29T00:34:51.587Z,8.25
2022-11-29T00:35:51.604Z,8.23
2022-11-29T00:36:51.565Z,8.23
2022-11-29T00:37:51.608Z,8.25
2022-11-29T00:38:51.534Z,8.25
2022-11-29T00:39:51.569Z,8.25
2022-11-29T00:40:51.518Z,8.25
2022-11-29T00:41:51.540Z,8.26
2022-11-29T00:42:51.486Z,8.23
2022-11-29T00:43:51.533Z,8.23
2022-11-29T00:44:51.478Z,8.23
2022-11-29T00:45:51.520Z,8.25
2022-11-29T00:46:51.438Z,8.23
2022-11-29T00:47:51.457Z,8.23
2022-11-29T00:48:51.413Z,8.23
2022-11-29T00:49:51.497Z,8.25
2022-11-29T00:50:51.377Z,8.23
2022-11-29T00:51:51.403Z,8.23
2022-11-29T00:52:51.356Z,8.23
2022-11-29T00:53:51.386Z,8.22
2022-11-29T00:54:51.359Z,8.23
2022-11-29T00:55:51.355Z,8.23
2022-11-29T00:56:51.318Z,8.22
2022-11-29T00:57:51.316Z,8.23
2022-11-29T00:58:51.298Z,8.22
2022-11-29T00:59:51.317Z,8.22
2022-11-29T01:00:51.305Z,8.23
2022-11-29T01:01:51.298Z,8.23
2022-11-29T01:02:51.228Z,8.25
2022-11-29T01:03:51.250Z,8.23
2022-11-29T01:04:51.207Z,8.23
2022-11-29T01:05:51.228Z,8.23
2022-11-29T01:06:51.197Z,8.23
2022-11-29T01:07:51.232Z,8.23
2022-11-29T01:08:51.155Z,8.25
2022-11-29T01:09:51.168Z,8.23
2022-11-29T01:10:51.157Z,8.25
2022-11-29T01:11:51.140Z,8.25
2022-11-29T01:12:51.103Z,8.23
2022-11-29T01:13:51.110Z,8.25
2022-11-29T01:14:51.102Z,8.25
2022-11-29T01:15:51.090Z,8.25
2022-11-29T01:16:51.090Z,8.25
2022-11-29T01:17:51.081Z,8.26
2022-11-29T01:18:51.023Z,8.26
2022-11-29T01:19:51.276Z,8.25
2022-11-29T01:20:51.013Z,8.25
2022-11-29T01:21:51.009Z,8.25
2022-11-29T01:22:51.013Z,8.23
2022-11-29T01:23:50.994Z,8.25
2022-11-29T01:24:50.949Z,8.23
2022-11-29T01:25:50.966Z,8.25
2022-11-29T01:26:50.925Z,8.23
2022-11-29T01:27:50.943Z,8.22
2022-11-29T01:28:50.925Z,8.22
2022-11-29T01:29:50.916Z,8.23
2022-11-29T01:30:50.936Z,8.22
2022-11-29T01:31:50.892Z,8.22
2022-11-29T01:32:50.869Z,8.20
2022-11-29T01:33:50.859Z,8.20
2022-11-29T01:34:50.816Z,8.20
2022-11-29T01:35:50.844Z,8.20
2022-11-29T01:36:50.812Z,8.19
2022-11-29T01:37:50.838Z,8.20
2022-11-29T01:38:50.794Z,8.19
2022-11-29T01:39:50.802Z,8.19
2022-11-29T01:40:50.753Z,8.19
2022-11-29T01:41:50.775Z,8.20
2022-11-29T01:42:50.720Z,8.19
2022-11-29T01:43:50.729Z,8.22
2022-11-29T01:44:50.719Z,8.20
2022-11-29T01:45:50.749Z,8.22
2022-11-29T01:46:50.668Z,8.20
2022-11-29T01:47:50.667Z,8.20
2022-11-29T01:48:50.632Z,8.20
2022-11-29T01:49:50.668Z,8.20
2022-11-29T01:50:50.634Z,8.22
2022-11-29T01:51:50.627Z,8.20
2022-11-29T01:52:50.578Z,8.22
2022-11-29T01:53:50.599Z,8.20
2022-11-29T01:54:50.594Z,8.22
2022-11-29T01:55:50.661Z,8.20
2022-11-29T01:56:50.544Z,8.20
2022-11-29T01:57:50.542Z,8.19
2022-11-29T01:58:50.513Z,8.19
2022-11-29T01:59:50.519Z,8.20
2022-11-29T02:00:50.512Z,8.19
2022-11-29T02:01:50.502Z,8.19
2022-11-29T02:02:50.462Z,8.19
2022-11-29T02:03:50.472Z,8.19
2022-11-29T02:04:50.467Z,8.19
2022-11-29T02:05:50.447Z,8.19
2022-11-29T02:06:50.429Z,8.19
2022-11-29T02:07:50.445Z,8.20
2022-11-29T02:08:50.383Z,8.20
2022-11-29T02:09:50.384Z,8.20
2022-11-29T02:10:50.368Z,8.19
2022-11-29T02:11:50.386Z,8.19
2022-11-29T02:12:50.323Z,8.19
2022-11-29T02:13:50.351Z,8.18
2022-11-29T02:14:50.332Z,8.19
2022-11-29T02:15:50.379Z,8.18
2022-11-29T02:16:56.295Z,8.18
2022-11-29T02:17:50.288Z,8.18
2022-11-29T02:18:50.253Z,8.18
2022-11-29T02:19:50.250Z,8.18
2022-11-29T02:20:50.219Z,8.16
2022-11-29T02:21:50.257Z,8.16
2022-11-29T02:22:50.198Z,8.16
2022-11-29T02:23:50.211Z,8.15
2022-11-29T02:24:50.193Z,8.18
2022-11-29T02:25:50.224Z,8.18
2022-11-29T02:26:50.142Z,8.16
2022-11-29T02:27:50.162Z,8.18
2022-11-29T02:28:50.137Z,8.18
2022-11-29T02:29:50.118Z,8.16
2022-11-29T02:30:50.130Z,8.16
2022-11-29T02:31:50.113Z,8.15
2022-11-29T02:32:50.066Z,8.16
2022-11-29T02:33:50.087Z,8.15
2022-11-29T02:34:50.043Z,8.15
2022-11-29T02:35:50.080Z,8.15
2022-11-29T02:36:50.012Z,8.15
2022-11-29T02:37:50.028Z,8.18
2022-11-29T02:38:50.006Z,8.16
2022-11-29T02:39:50.019Z,8.16
2022-11-29T02:40:50.024Z,8.16
2022-11-29T02:41:49.985Z,8.16
2022-11-29T02:42:56.072Z,8.16
2022-11-29T02:43:49.949Z,8.15
2022-11-29T02:44:49.908Z,8.16
2022-11-29T02:45:50.006Z,8.15
2022-11-29T02:46:49.884Z,8.12
2022-11-29T02:47:49.913Z,8.15
2022-11-29T02:48:49.861Z,8.15
2022-11-29T02:49:49.869Z,8.12
2022-11-29T02:50:49.866Z,8.12
2022-11-29T02:51:49.844Z,8.11
2022-11-29T02:52:49.821Z,8.11
2022-11-29T02:53:49.832Z,8.15
2022-11-29T02:54:49.782Z,8.15
2022-11-29T02:55:49.809Z,8.16
2022-11-29T02:56:49.780Z,8.16
2022-11-29T02:57:49.764Z,8.16
2022-11-29T02:58:49.728Z,8.15
2022-11-29T02:59:49.756Z,8.12
2022-11-29T03:00:49.719Z,8.12
2022-11-29T03:01:49.786Z,8.15
2022-11-29T03:02:49.726Z,8.15
2022-11-29T03:03:49.755Z,8.12
2022-11-29T03:04:49.647Z,8.12
2022-11-29T03:05:49.670Z,8.11
2022-11-29T03:06:49.641Z,8.11
2022-11-29T03:07:49.720Z,8.11
2022-11-29T03:08:49.618Z,8.11
2022-11-29T03:09:49.617Z,8.11
2022-11-29T03:10:49.582Z,8.11
2022-11-29T03:11:49.595Z,8.10
2022-11-29T03:12:49.585Z,8.11
2022-11-29T03:13:49.633Z,8.10
2022-11-29T03:14:49.518Z,8.11
2022-11-29T03:15:49.575Z,8.12
2022-11-29T03:16:49.486Z,8.12
2022-11-29T03:17:49.529Z,8.12
2022-11-29T03:18:49.479Z,8.11
2022-11-29T03:19:49.492Z,8.12
2022-11-29T03:20:49.448Z,8.11
2022-11-29T03:21:49.447Z,8.12
2022-11-29T03:22:49.425Z,8.15
2022-11-29T03:23:49.453Z,8.12
2022-11-29T03:24:49.402Z,8.12
2022-11-29T03:25:49.422Z,8.15
2022-11-29T03:26:49.364Z,8.12
2022-11-29T03:27:49.380Z,8.11
2022-11-29T03:28:49.380Z,8.10
2022-11-29T03:29:49.326Z,8.11
2022-11-29T03:30:49.384Z,8.10
2022-11-29T03:31:49.300Z,8.11
2022-11-29T03:32:49.327Z,8.12
2022-11-29T03:33:49.317Z,8.12
2022-11-29T03:34:53.001Z,8.12
2022-11-29T03:35:49.255Z,8.15
2022-11-29T03:36:49.270Z,8.12
2022-11-29T03:37:49.224Z,8.11
2022-11-29T03:38:49.265Z,8.11
2022-11-29T03:39:49.204Z,8.11
2022-11-29T03:40:49.240Z,8.11
2022-11-29T03:41:49.203Z,8.11
2022-11-29T03:42:49.180Z,8.10
2022-11-29T03:43:49.170Z,8.11
2022-11-29T03:44:49.182Z,8.11
2022-11-29T03:45:49.115Z,8.12
2022-11-29T03:46:49.131Z,8.12
2022-11-29T03:47:49.096Z,8.12
2022-11-29T03:48:49.424Z,8.12
2022-11-29T03:49:49.075Z,8.15
2022-11-29T03:50:49.112Z,8.15
2022-11-29T03:51:49.046Z,8.12
2022-11-29T03:52:49.086Z,8.15
2022-11-29T03:53:49.033Z,8.15
2022-11-29T03:54:49.023Z,8.15
2022-11-29T03:55:49.002Z,8.12
2022-11-29T03:56:49.037Z,8.15
2022-11-29T03:57:48.969Z,8.15
2022-11-29T03:58:48.985Z,8.15
2022-11-29T03:59:48.943Z,8.12
2022-11-29T04:00:48.971Z,8.12
2022-11-29T04:01:49.021Z,8.12
2022-11-29T04:02:48.976Z,8.12
2022-11-29T04:03:48.890Z,8.11
2022-11-29T04:04:48.920Z,8.11
2022-11-29T04:05:48.885Z,8.10
2022-11-29T04:06:48.896Z,8.10
2022-11-29T04:07:48.860Z,8.10
2022-11-29T04:08:48.872Z,8.10
2022-11-29T04:09:48.813Z,8.11
2022-11-29T04:10:48.827Z,8.11
2022-11-29T04:11:48.789Z,8.11
2022-11-29T04:12:48.817Z,8.12
2022-11-29T04:13:48.769Z,8.12
2022-11-29T04:14:48.762Z,8.12
2022-11-29T04:15:48.759Z,8.12
2022-11-29T04:16:48.747Z,8.12
2022-11-29T04:17:48.724Z,8.12
2022-11-29T04:18:48.722Z,8.12
2022-11-29T04:19:48.695Z,8.11
2022-11-29T04:20:48.755Z,8.11
2022-11-29T04:21:48.654Z,8.12
2022-11-29T04:22:48.682Z,8.12
2022-11-29T04:23:48.656Z,8.12
2022-11-29T04:24:48.673Z,8.11
2022-11-29T04:25:48.608Z,8.12
2022-11-29T04:26:48.618Z,8.16
2022-11-29T04:27:48.591Z,8.15
2022-11-29T04:28:48.594Z,8.16
2022-11-29T04:29:48.550Z,8.18
2022-11-29T04:30:48.637Z,8.16
2022-11-29T04:31:48.524Z,8.18
2022-11-29T04:32:48.534Z,8.19
2022-11-29T04:33:48.523Z,8.18
2022-11-29T04:34:48.515Z,8.16
2022-11-29T04:35:48.489Z,8.16
2022-11-29T04:36:48.489Z,8.15
2022-11-29T04:37:48.451Z,8.16
2022-11-29T04:38:48.490Z,8.16
2022-11-29T04:39:48.449Z,8.16
2022-11-29T04:40:48.432Z,8.16
2022-11-29T04:41:48.398Z,8.15
2022-11-29T04:42:48.406Z,8.15
2022-11-29T04:43:48.467Z,8.15
2022-11-29T04:44:48.388Z,8.16
2022-11-29T04:45:48.352Z,8.16
2022-11-29T04:46:48.389Z,8.16
2022-11-29T04:47:48.325Z,8.16
2022-11-29T04:48:48.337Z,8.18
2022-11-29T04:49:48.387Z,8.18
2022-11-29T04:50:48.298Z,8.19
2022-11-29T04:51:48.290Z,8.19
2022-11-29T04:52:48.331Z,8.18
2022-11-29T04:53:48.239Z,8.18
2022-11-29T04:54:48.245Z,8.16
2022-11-29T04:55:48.233Z,8.16
2022-11-29T04:56:48.246Z,8.15
2022-11-29T04:57:48.189Z,8.16
2022-11-29T04:58:48.195Z,8.15
2022-11-29T04:59:48.158Z,8.16
2022-11-29T05:00:48.169Z,8.16
2022-11-29T05:01:48.206Z,8.15
2022-11-29T05:02:48.204Z,8.16
2022-11-29T05:03:50.257Z,8.16
2022-11-29T05:04:48.134Z,8.16
2022-11-29T05:05:48.110Z,8.15
2022-11-29T05:06:48.119Z,8.15
2022-11-29T05:07:48.131Z,8.15
2022-11-29T05:08:48.068Z,8.16
2022-11-29T05:09:48.050Z,8.18
2022-11-29T05:10:48.064Z,8.16
2022-11-29T05:11:48.046Z,8.16
2022-11-29T05:12:48.029Z,8.16
2022-11-29T05:13:47.981Z,8.16
2022-11-29T05:14:48.023Z,8.16
2022-11-29T05:15:48.042Z,8.16
2022-11-29T05:16:47.969Z,8.18
2022-11-29T05:17:47.965Z,8.19
2022-11-29T05:18:47.969Z,8.19
2022-11-29T05:19:47.902Z,8.19
2022-11-29T05:20:47.909Z,8.20
2022-11-29T05:21:47.893Z,8.19
2022-11-29T05:22:47.890Z,8.19
2022-11-29T05:23:47.858Z,8.18
2022-11-29T05:24:47.913Z,8.16
2022-11-29T05:25:47.819Z,8.15
2022-11-29T05:26:47.847Z,8.12
2022-11-29T05:27:47.832Z,8.11
2022-11-29T05:28:47.810Z,8.12
2022-11-29T05:29:47.763Z,8.12
2022-11-29T05:30:47.861Z,8.11
2022-11-29T05:31:47.759Z,8.12
2022-11-29T05:32:47.747Z,8.11
2022-11-29T05:33:47.713Z,8.11
2022-11-29T05:34:48.045Z,8.11
2022-11-29T05:35:47.783Z,8.11
2022-11-29T05:36:47.724Z,8.10
2022-11-29T05:37:47.686Z,8.12
2022-11-29T05:38:47.686Z,8.12
2022-11-29T05:39:47.641Z,8.15
2022-11-29T05:40:47.685Z,8.15
2022-11-29T05:41:47.630Z,8.16
2022-11-29T05:42:47.642Z,8.15
2022-11-29T05:43:47.589Z,8.16
2022-11-29T05:44:47.898Z,8.15
2022-11-29T05:45:47.590Z,8.12
2022-11-29T05:46:47.645Z,8.11
2022-11-29T05:47:47.548Z,8.12
2022-11-29T05:48:47.559Z,8.12
2022-11-29T05:49:47.523Z,8.12
2022-11-29T05:50:47.589Z,8.11
2022-11-29T05:51:47.498Z,8.12
2022-11-29T05:52:47.521Z,8.11
2022-11-29T05:53:47.493Z,8.11
2022-11-29T05:54:47.776Z,8.10
2022-11-29T05:55:47.441Z,8.11
2022-11-29T05:56:47.504Z,8.11
2022-11-29T05:57:47.423Z,8.11
2022-11-29T05:58:47.422Z,8.11
2022-11-29T05:59:47.393Z,8.11
2022-11-29T06:00:47.401Z,8.12
2022-11-29T06:01:47.453Z,8.11
2022-11-29T06:02:47.438Z,8.11
2022-11-29T06:03:47.372Z,8.11
2022-11-29T06:04:47.646Z,8.11
2022-11-29T06:05:47.314Z,8.12
2022-11-29T06:06:47.309Z,8.11
2022-11-29T06:07:47.474Z,8.08
2022-11-29T06:08:47.306Z,8.10
2022-11-29T06:09:47.266Z,8.10
2022-11-29T06:10:47.262Z,8.11
2022-11-29T06:11:47.224Z,8.10
2022-11-29T06:12:47.269Z,8.10
2022-11-29T06:13:47.215Z,8.10
2022-11-29T06:14:47.494Z,8.10
2022-11-29T06:15:47.188Z,8.08
2022-11-29T06:16:47.191Z,8.08
2022-11-29T06:17:47.155Z,8.08
2022-11-29T06:18:47.183Z,8.07
2022-11-29T06:19:47.145Z,8.07
2022-11-29T06:20:47.154Z,8.08
2022-11-29T06:21:47.097Z,8.07
2022-11-29T06:22:47.172Z,8.07
2022-11-29T06:23:47.094Z,8.07
2022-11-29T06:24:47.406Z,8.07
2022-11-29T06:25:47.049Z,8.05
2022-11-29T06:26:47.091Z,8.04
2022-11-29T06:27:47.020Z,8.02
2022-11-29T06:28:47.036Z,8.04
2022-11-29T06:29:47.034Z,8.02
2022-11-29T06:30:47.003Z,8.04
2022-11-29T06:31:47.009Z,8.02
2022-11-29T06:32:46.985Z,8.01
2022-11-29T06:33:46.962Z,8.02
2022-11-29T06:34:47.377Z,8.01
2022-11-29T06:35:46.941Z,8.02
2022-11-29T06:36:46.933Z,8.01
2022-11-29T06:37:46.896Z,8.01
2022-11-29T06:38:46.897Z,8.02
2022-11-29T06:39:46.898Z,8.04
2022-11-29T06:40:46.868Z,8.02
2022-11-29T06:41:46.842Z,8.02
2022-11-29T06:42:46.905Z,8.02
2022-11-29T06:43:46.810Z,8.05
2022-11-29T06:44:47.129Z,8.05
2022-11-29T06:45:46.784Z,8.05
2022-11-29T06:46:46.899Z,8.08
2022-11-29T06:47:46.762Z,8.08
2022-11-29T06:48:46.808Z,8.10
2022-11-29T06:49:46.741Z,8.12
2022-11-29T06:50:46.741Z,8.15
2022-11-29T06:51:46.848Z,8.15
2022-11-29T06:52:46.744Z,8.15
2022-11-29T06:53:46.696Z,8.12
2022-11-29T06:54:47.146Z,8.15
2022-11-29T06:55:46.686Z,8.12
2022-11-29T06:56:46.690Z,8.15
2022-11-29T06:57:46.653Z,8.15
2022-11-29T06:58:46.642Z,8.15
2022-11-29T06:59:46.607Z,8.15
2022-11-29T07:00:46.667Z,8.11
2022-11-29T07:01:46.616Z,8.10
2022-11-29T07:02:46.634Z,8.08
2022-11-29T07:03:46.577Z,8.07
2022-11-29T07:04:46.851Z,8.07
2022-11-29T07:05:46.565Z,8.07
2022-11-29T07:06:46.537Z,8.07
2022-11-29T07:07:46.548Z,8.07
2022-11-29T07:08:46.576Z,8.08
2022-11-29T07:09:46.485Z,8.11
2022-11-29T07:10:46.524Z,8.15
2022-11-29T07:11:46.465Z,8.18
2022-11-29T07:12:46.448Z,8.19
2022-11-29T07:13:46.440Z,8.18
2022-11-29T07:14:46.672Z,8.20
2022-11-29T07:15:46.428Z,8.20
2022-11-29T07:16:46.402Z,8.20
2022-11-29T07:17:46.375Z,8.23
2022-11-29T07:18:46.409Z,8.25
2022-11-29T07:19:46.399Z,8.23
2022-11-29T07:20:46.371Z,8.23
2022-11-29T07:21:46.328Z,8.26
2022-11-29T07:22:46.322Z,8.26
2022-11-29T07:23:46.309Z,8.25
2022-11-29T07:24:46.622Z,8.23
2022-11-29T07:25:46.300Z,8.22
2022-11-29T07:26:46.285Z,8.22
2022-11-29T07:27:46.251Z,8.20
2022-11-29T07:28:46.302Z,8.20
2022-11-29T07:29:46.234Z,8.19
2022-11-29T07:30:46.237Z,8.19
2022-11-29T07:31:46.291Z,8.16
2022-11-29T07:32:50.483Z,8.12
2022-11-29T07:33:46.158Z,8.10
2022-11-29T07:34:46.503Z,8.08
2022-11-29T07:35:46.173Z,8.05
2022-11-29T07:36:46.169Z,8.04
2022-11-29T07:37:46.116Z,8.02
2022-11-29T07:38:46.145Z,8.01
2022-11-29T07:39:46.094Z,8.00
2022-11-29T07:40:46.104Z,8.01
2022-11-29T07:41:46.081Z,8.01
2022-11-29T07:42:46.071Z,8.04
2022-11-29T07:43:46.026Z,8.04
2022-11-29T07:44:46.272Z,8.07
2022-11-29T07:45:46.043Z,8.07
2022-11-29T07:46:46.126Z,8.08
2022-11-29T07:47:46.011Z,8.10
2022-11-29T07:48:45.963Z,8.11
2022-11-29T07:49:45.970Z,8.12
2022-11-29T07:50:45.981Z,8.12
2022-11-29T07:51:45.961Z,8.16
2022-11-29T07:52:45.927Z,8.18
2022-11-29T07:53:45.940Z,8.19
2022-11-29T07:54:46.162Z,8.18
2022-11-29T07:55:45.910Z,8.15
2022-11-29T07:56:45.944Z,8.12
2022-11-29T07:57:45.880Z,8.11
2022-11-29T07:58:45.935Z,8.12
2022-11-29T07:59:46.064Z,8.10
2022-11-29T08:00:45.933Z,8.10
2022-11-29T08:01:45.887Z,8.11
2022-11-29T08:02:45.784Z,8.11
2022-11-29T08:03:45.800Z,8.11
2022-11-29T08:04:46.064Z,8.11
2022-11-29T08:05:45.816Z,8.11
2022-11-29T08:06:45.777Z,8.12
2022-11-29T08:07:45.805Z,8.12
2022-11-29T08:08:45.713Z,8.15
2022-11-29T08:09:45.959Z,8.15
2022-11-29T08:10:45.723Z,8.16
2022-11-29T08:11:45.719Z,8.18
2022-11-29T08:12:45.653Z,8.16
2022-11-29T08:13:45.661Z,8.15
2022-11-29T08:14:45.885Z,8.16
2022-11-29T08:15:45.675Z,8.16
2022-11-29T08:16:45.656Z,8.16
2022-11-29T08:17:45.622Z,8.16
2022-11-29T08:18:45.589Z,8.16
2022-11-29T08:19:45.600Z,8.18
2022-11-29T08:20:45.577Z,8.19
2022-11-29T08:21:45.565Z,8.20
2022-11-29T08:22:45.637Z,8.20
2022-11-29T08:23:45.536Z,8.23
2022-11-29T08:24:45.729Z,8.25
2022-11-29T08:25:45.520Z,8.25
2022-11-29T08:26:45.477Z,8.25
2022-11-29T08:27:45.482Z,8.25
2022-11-29T08:28:45.468Z,8.25
2022-11-29T08:29:45.473Z,8.22
2022-11-29T08:30:45.468Z,8.19
2022-11-29T08:31:45.476Z,8.20
2022-11-29T08:32:51.108Z,8.18
2022-11-29T08:33:45.420Z,8.19
2022-11-29T08:34:45.713Z,8.19
2022-11-29T08:35:45.379Z,8.19
2022-11-29T08:36:45.365Z,8.20
2022-11-29T08:37:45.382Z,8.22
2022-11-29T08:38:45.348Z,8.25
2022-11-29T08:39:45.325Z,8.25
2022-11-29T08:40:45.289Z,8.25
2022-11-29T08:41:45.308Z,8.25
2022-11-29T08:42:45.279Z,8.25
2022-11-29T08:43:45.414Z,8.23
2022-11-29T08:44:45.665Z,8.23
2022-11-29T08:45:45.282Z,8.22
2022-11-29T08:46:45.216Z,8.23
2022-11-29T08:47:45.236Z,8.22
2022-11-29T08:48:45.208Z,8.19
2022-11-29T08:49:45.242Z,8.22
2022-11-29T08:50:45.176Z,8.20
2022-11-29T08:51:45.189Z,8.19
2022-11-29T08:52:45.140Z,8.19
2022-11-29T08:53:45.150Z,8.20
2022-11-29T08:54:45.466Z,8.20
2022-11-29T08:55:45.156Z,8.19
2022-11-29T08:57:31.436Z,8.20
2022-11-29T08:57:45.105Z,8.20
2022-11-29T08:58:45.060Z,8.22
2022-11-29T08:59:45.125Z,8.23
2022-11-29T09:00:45.070Z,8.25
2022-11-29T09:01:45.042Z,8.28
2022-11-29T09:02:45.002Z,8.26
2022-11-29T09:03:45.046Z,8.25
2022-11-29T09:04:45.252Z,8.23
2022-11-29T09:05:45.005Z,8.25
2022-11-29T09:06:44.984Z,8.23
2022-11-29T09:07:44.979Z,8.25
2022-11-29T09:08:44.933Z,8.26
2022-11-29T09:09:44.944Z,8.26
2022-11-29T09:10:44.897Z,8.26
2022-11-29T09:11:49.226Z,8.30
2022-11-29T09:12:44.867Z,8.29
2022-11-29T09:13:44.891Z,8.33
2022-11-29T09:14:45.354Z,8.30
2022-11-29T09:15:44.865Z,8.30
2022-11-29T09:16:44.986Z,8.29
2022-11-29T09:17:44.839Z,8.29
2022-11-29T09:18:48.618Z,8.29
2022-11-29T09:19:44.827Z,8.29
2022-11-29T09:20:44.804Z,8.29
2022-11-29T09:21:44.814Z,8.29
2022-11-29T09:22:44.770Z,8.33
2022-11-29T09:23:44.754Z,8.34
2022-11-29T09:24:44.846Z,8.33
2022-11-29T09:25:44.757Z,8.34
2022-11-29T09:26:44.687Z,8.34
2022-11-29T09:27:44.706Z,8.36
2022-11-29T09:28:44.668Z,8.36
2022-11-29T09:29:44.700Z,8.36
2022-11-29T09:30:44.645Z,8.36
2022-11-29T09:31:44.731Z,8.34
2022-11-29T09:32:44.634Z,8.34
2022-11-29T09:33:44.646Z,8.36
2022-11-29T09:34:44.958Z,8.36
2022-11-29T09:35:44.592Z,8.36
2022-11-29T09:36:44.564Z,8.34
2022-11-29T09:37:44.594Z,8.36
2022-11-29T09:38:44.563Z,8.36
2022-11-29T09:39:44.567Z,8.36
2022-11-29T09:40:44.538Z,8.37
2022-11-29T09:41:48.403Z,8.36
2022-11-29T09:42:44.501Z,8.36
2022-11-29T09:43:44.500Z,8.36
2022-11-29T09:44:44.957Z,8.37
2022-11-29T09:45:44.514Z,8.38
2022-11-29T09:46:44.430Z,8.38
2022-11-29T09:47:44.452Z,8.37
2022-11-29T09:48:44.416Z,8.40
2022-11-29T09:49:44.430Z,8.41
2022-11-29T09:50:44.419Z,8.41
2022-11-29T09:51:44.709Z,8.43
2022-11-29T09:52:44.351Z,8.44
2022-11-29T09:53:44.399Z,8.44
2022-11-29T09:54:44.673Z,8.45
2022-11-29T09:55:44.372Z,8.44
2022-11-29T09:56:44.308Z,8.43
2022-11-29T09:57:44.344Z,8.43
2022-11-29T09:58:44.275Z,8.41
2022-11-29T09:59:44.322Z,8.41
2022-11-29T10:00:44.278Z,8.43
2022-11-29T10:01:44.287Z,8.45
2022-11-29T10:02:44.288Z,8.44
2022-11-29T10:03:44.265Z,8.45
2022-11-29T10:04:44.509Z,8.47
2022-11-29T10:05:44.264Z,8.48
2022-11-29T10:06:44.173Z,8.47
2022-11-29T10:07:44.235Z,8.44
2022-11-29T10:08:44.150Z,8.43
2022-11-29T10:09:44.177Z,8.40
2022-11-29T10:10:44.151Z,8.37
2022-11-29T10:11:44.187Z,8.34
2022-11-29T10:12:44.088Z,8.37
2022-11-29T10:13:44.107Z,8.37
2022-11-29T10:14:44.462Z,8.37
2022-11-29T10:15:44.108Z,8.40
2022-11-29T10:16:44.146Z,8.40
2022-11-29T10:17:44.090Z,8.40
2022-11-29T10:18:44.013Z,8.41
2022-11-29T10:19:44.033Z,8.41
2022-11-29T10:20:48.812Z,8.41
2022-11-29T10:21:44.048Z,8.37
2022-11-29T10:22:43.981Z,8.34
2022-11-29T10:23:43.982Z,8.36
2022-11-29T10:24:44.269Z,8.37
2022-11-29T10:25:43.962Z,8.40
2022-11-29T10:26:43.906Z,8.43
2022-11-29T10:27:43.945Z,8.45
2022-11-29T10:28:43.882Z,8.48
2022-11-29T10:29:43.919Z,8.50
2022-11-29T10:30:43.930Z,8.50
2022-11-29T10:31:43.878Z,8.52
2022-11-29T10:32:43.853Z,8.52
2022-11-29T10:33:43.870Z,8.50
2022-11-29T10:34:44.196Z,8.50
2022-11-29T10:35:43.809Z,8.48
2022-11-29T10:36:43.803Z,8.52
2022-11-29T10:37:56.355Z,8.53
2022-11-29T10:38:43.752Z,8.53
2022-11-29T10:39:43.803Z,8.55
2022-11-29T10:40:43.755Z,8.56
2022-11-29T10:41:43.756Z,8.58
2022-11-29T10:42:43.713Z,8.58
2022-11-29T10:43:43.727Z,8.59
2022-11-29T10:44:44.235Z,8.61
2022-11-29T10:45:43.770Z,8.63
2022-11-29T10:46:43.655Z,8.63
2022-11-29T10:47:43.656Z,8.59
2022-11-29T10:48:43.655Z,8.53
2022-11-29T10:49:43.655Z,8.50
2022-11-29T10:50:43.625Z,8.52
2022-11-29T10:51:43.613Z,8.52
2022-11-29T10:52:43.607Z,8.58
2022-11-29T10:53:43.581Z,8.59
2022-11-29T10:54:44.129Z,8.65
2022-11-29T10:55:43.573Z,8.70
2022-11-29T10:56:43.541Z,8.73
2022-11-29T10:57:43.545Z,8.77
2022-11-29T10:58:43.500Z,8.73
2022-11-29T10:59:43.507Z,8.68
2022-11-29T11:00:43.462Z,8.71
2022-11-29T11:01:43.573Z,8.71
2022-11-29T11:02:43.439Z,8.71
2022-11-29T11:03:43.445Z,8.71
2022-11-29T11:04:43.789Z,8.71
2022-11-29T11:05:43.474Z,8.70
2022-11-29T11:06:43.436Z,8.71
2022-11-29T11:07:43.537Z,8.71
2022-11-29T11:08:43.377Z,8.74
2022-11-29T11:09:43.373Z,8.76
2022-11-29T11:10:46.976Z,8.77
2022-11-29T11:11:43.374Z,8.77
2022-11-29T11:12:43.334Z,8.76
2022-11-29T11:13:43.331Z,8.74
2022-11-29T11:14:43.692Z,8.76
2022-11-29T11:15:43.310Z,8.76
2022-11-29T11:16:43.297Z,8.77
2022-11-29T11:17:43.294Z,8.79
2022-11-29T11:18:43.261Z,8.80
2022-11-29T11:19:43.232Z,8.81
2022-11-29T11:20:43.225Z,8.81
2022-11-29T11:21:43.259Z,8.81
2022-11-29T11:22:43.217Z,8.83
2022-11-29T11:23:43.190Z,8.81
2022-11-29T11:24:43.611Z,8.84
2022-11-29T11:25:43.162Z,8.87
2022-11-29T11:26:43.124Z,8.91
2022-11-29T11:27:43.166Z,8.91
2022-11-29T11:28:43.099Z,8.92
2022-11-29T11:29:43.124Z,8.95
2022-11-29T11:30:43.108Z,8.95
2022-11-29T11:31:43.140Z,8.95
2022-11-29T11:32:43.054Z,8.94
2022-11-29T11:33:43.072Z,8.92
2022-11-29T11:34:43.484Z,8.94
2022-11-29T11:35:43.043Z,8.95
2022-11-29T11:36:43.038Z,8.96
2022-11-29T11:37:43.022Z,8.95
2022-11-29T11:38:42.976Z,8.94
2022-11-29T11:39:43.086Z,8.95
2022-11-29T11:40:42.997Z,8.87
2022-11-29T11:41:43.002Z,8.84
2022-11-29T11:42:42.936Z,8.84
2022-11-29T11:43:42.972Z,8.87
2022-11-29T11:44:47.298Z,8.89
2022-11-29T11:45:42.908Z,8.91
2022-11-29T11:46:42.929Z,8.89
2022-11-29T11:47:42.917Z,8.92
2022-11-29T11:48:42.871Z,8.94
2022-11-29T11:49:42.834Z,8.94
2022-11-29T11:50:42.862Z,8.91
2022-11-29T11:51:42.815Z,8.86
2022-11-29T11:52:47.463Z,8.79
2022-11-29T11:53:42.807Z,8.74
2022-11-29T11:54:43.125Z,8.68
2022-11-29T11:55:42.755Z,8.68
2022-11-29T11:56:42.757Z,8.73
2022-11-29T11:57:42.720Z,8.76
2022-11-29T11:58:42.761Z,8.79
2022-11-29T11:59:42.699Z,8.79
2022-11-29T12:01:42.702Z,8.84
2022-11-29T12:02:42.778Z,8.84
2022-11-29T12:03:42.761Z,8.86
2022-11-29T12:04:43.036Z,8.83
2022-11-29T12:05:46.244Z,8.83
2022-11-29T12:06:42.595Z,8.83
2022-11-29T12:08:07.523Z,8.86
2022-11-29T12:08:42.612Z,8.86
2022-11-29T12:09:42.606Z,8.87
2022-11-29T12:10:42.561Z,8.86
2022-11-29T12:11:42.560Z,8.87
2022-11-29T12:12:42.529Z,8.87
2022-11-29T12:13:42.560Z,8.89
2022-11-29T12:14:42.760Z,8.89
2022-11-29T12:15:42.590Z,8.89
2022-11-29T12:16:42.475Z,8.91
2022-11-29T12:17:42.475Z,8.91
2022-11-29T12:18:42.447Z,8.91
2022-11-29T12:19:42.467Z,8.84
2022-11-29T12:20:42.484Z,8.81
2022-11-29T12:21:42.443Z,8.84
2022-11-29T12:22:47.907Z,8.86
2022-11-29T12:23:42.414Z,8.87
2022-11-29T12:24:42.367Z,8.87
2022-11-29T12:25:42.407Z,8.91
2022-11-29T12:26:56.810Z,8.89
2022-11-29T12:27:42.377Z,8.91
2022-11-29T12:28:42.342Z,8.84
2022-11-29T12:29:42.322Z,8.80
2022-11-29T12:30:42.290Z,8.77
2022-11-29T12:31:42.344Z,8.80
2022-11-29T12:32:42.270Z,8.81
2022-11-29T12:33:42.272Z,8.86
2022-11-29T12:34:43.327Z,8.87
2022-11-29T12:35:42.268Z,8.91
2022-11-29T12:36:42.235Z,8.91
2022-11-29T12:37:42.231Z,8.92
2022-11-29T12:38:42.190Z,8.94
2022-11-29T12:39:42.202Z,8.96
2022-11-29T12:40:42.200Z,8.98
2022-11-29T12:41:42.152Z,8.99
2022-11-29T12:42:42.130Z,8.99
2022-11-29T12:43:42.141Z,8.98
2022-11-29T12:44:42.179Z,8.92
2022-11-29T12:45:42.162Z,8.89
2022-11-29T12:46:42.158Z,8.87
2022-11-29T12:47:42.138Z,8.87
2022-11-29T12:48:42.102Z,8.91
2022-11-29T12:49:42.079Z,8.94
2022-11-29T12:50:42.039Z,8.96
2022-11-29T12:51:42.041Z,8.98
2022-11-29T12:52:42.023Z,9.01
2022-11-29T12:53:42.007Z,9.04
2022-11-29T12:54:42.124Z,9.05
2022-11-29T12:55:41.989Z,9.05
2022-11-29T12:56:41.942Z,9.10
2022-11-29T12:57:42.009Z,9.11
2022-11-29T12:58:45.842Z,9.13
2022-11-29T12:59:41.935Z,9.14
2022-11-29T13:00:41.899Z,9.13
2022-11-29T13:01:41.975Z,9.15
2022-11-29T13:02:41.993Z,9.14
2022-11-29T13:03:41.924Z,9.17
2022-11-29T13:04:41.886Z,9.15
2022-11-29T13:05:41.866Z,9.17
2022-11-29T13:06:41.824Z,9.14
2022-11-29T13:07:41.867Z,9.14
2022-11-29T13:08:41.787Z,8.96
2022-11-29T13:09:41.895Z,8.91
2022-11-29T13:10:41.765Z,8.89
2022-11-29T13:11:41.804Z,8.89
2022-11-29T13:12:41.751Z,8.92
2022-11-29T13:13:41.813Z,8.95
2022-11-29T13:14:43.334Z,8.98
2022-11-29T13:15:41.782Z,9.01
2022-11-29T13:16:41.766Z,8.99
2022-11-29T13:17:41.695Z,8.96
2022-11-29T13:18:41.662Z,8.94
2022-11-29T13:19:41.702Z,8.94